Time;durP1;ratioP1;P1;durP2;ratioP2;P2;SDS_P1;SDS_P2;PMS_P1;PMS_P2;Temp;Humidity;BMP_temperature;BMP_pressure;BME280_temperature;BME280_humidity;BME280_pressure;Samples;Min_cycle;Max_cycle;Signal;HPM_P1;HPM_P2
2021/05/01 00:00:55;;;;;;;8.73;6.53;;;11.50;99.90;;;;;;4238413;27;20456;-61
2021/05/01 00:02:56;;;;;;;15.37;9.73;;;11.50;99.90;;;;;;4241295;27;20027;-61
2021/05/01 00:04:58;;;;;;;14.53;8.03;;;11.50;99.90;;;;;;4240462;27;20925;-61
2021/05/01 00:06:59;;;;;;;12.50;7.63;;;11.50;99.90;;;;;;4241269;27;20023;-61
2021/05/01 00:09:00;;;;;;;12.63;8.07;;;11.40;99.90;;;;;;4240145;27;20096;-60
2021/05/01 00:11:02;;;;;;;16.57;8.20;;;11.30;99.90;;;;;;4241313;27;20084;-61
2021/05/01 00:13:04;;;;;;;13.77;9.30;;;11.30;99.90;;;;;;4239585;27;20087;-61
2021/05/01 00:15:06;;;;;;;13.37;7.30;;;11.20;99.90;;;;;;4241132;27;20031;-61
2021/05/01 00:17:07;;;;;;;15.33;9.37;;;11.20;99.90;;;;;;4239877;27;20103;-61
2021/05/01 00:19:09;;;;;;;17.47;9.70;;;11.10;99.90;;;;;;4240588;27;20436;-62
2021/05/01 00:21:10;;;;;;;10.27;7.30;;;11.10;99.90;;;;;;4240444;27;20071;-60
2021/05/01 00:23:11;;;;;;;12.80;8.70;;;11.10;99.90;;;;;;4240328;27;20036;-60
2021/05/01 00:25:12;;;;;;;17.83;8.87;;;11.00;99.90;;;;;;4239592;27;20460;-60
2021/05/01 00:27:13;;;;;;;12.17;7.73;;;11.00;99.90;;;;;;4239205;27;20035;-61
2021/05/01 00:29:14;;;;;;;17.73;8.63;;;11.00;99.90;;;;;;4241132;27;20020;-61
2021/05/01 00:31:18;;;;;;;18.23;9.07;;;11.00;99.90;;;;;;4239781;27;20076;-61
2021/05/01 00:33:19;;;;;;;14.43;8.97;;;10.90;99.90;;;;;;4240960;27;20023;-61
2021/05/01 00:35:20;;;;;;;14.47;9.50;;;10.90;99.90;;;;;;4240160;27;20015;-64
2021/05/01 00:37:21;;;;;;;15.07;8.80;;;10.90;99.90;;;;;;4240891;27;20023;-61
2021/05/01 00:39:22;;;;;;;13.10;8.20;;;10.80;99.90;;;;;;4239317;27;20043;-60
2021/05/01 00:41:24;;;;;;;16.13;8.90;;;10.90;99.90;;;;;;4240675;27;20486;-61
2021/05/01 00:43:27;;;;;;;19.13;9.60;;;10.80;99.90;;;;;;4238144;27;20567;-61
2021/05/01 00:45:28;;;;;;;17.27;9.57;;;10.70;99.90;;;;;;4240643;27;20027;-60
2021/05/01 00:47:30;;;;;;;15.40;9.43;;;10.70;99.90;;;;;;4239653;27;20092;-61
2021/05/01 00:49:31;;;;;;;14.57;8.77;;;10.60;99.90;;;;;;4238994;27;20096;-61
2021/05/01 00:51:32;;;;;;;16.83;8.47;;;10.50;99.90;;;;;;4240115;27;20444;-63
2021/05/01 00:53:33;;;;;;;17.07;9.70;;;10.50;99.90;;;;;;4238163;27;20035;-60
2021/05/01 00:55:35;;;;;;;14.80;8.40;;;10.40;99.90;;;;;;4239874;27;20023;-61
2021/05/01 00:57:37;;;;;;;18.40;9.67;;;10.40;99.90;;;;;;4239627;27;20548;-61
2021/05/01 00:59:38;;;;;;;13.57;8.87;;;10.40;99.90;;;;;;4240399;27;20088;-61
2021/05/01 01:01:48;;;;;;;10.63;7.40;;;10.40;99.90;;;;;;4239428;27;20031;-61
2021/05/01 01:03:49;;;;;;;19.10;9.00;;;10.40;99.90;;;;;;4240821;27;20116;-61
2021/05/01 01:05:50;;;;;;;15.03;8.20;;;10.40;99.90;;;;;;4239515;27;20039;-60
2021/05/01 01:07:51;;;;;;;12.60;8.17;;;10.40;99.90;;;;;;4240728;27;20558;-60
2021/05/01 01:09:53;;;;;;;15.53;8.97;;;10.30;99.90;;;;;;4239189;27;20035;-60
2021/05/01 01:11:55;;;;;;;17.10;9.40;;;10.40;99.90;;;;;;4236413;27;20756;-61
2021/05/01 01:13:57;;;;;;;15.23;10.10;;;10.30;99.90;;;;;;4222142;28;20024;-60
2021/05/01 01:15:58;;;;;;;18.87;9.60;;;10.20;99.90;;;;;;4223350;28;20687;-62
2021/05/01 01:18:00;;;;;;;21.77;9.93;;;10.20;99.90;;;;;;4221591;28;20061;-60
2021/05/01 01:20:03;;;;;;;13.47;8.90;;;10.10;99.90;;;;;;4223543;28;20031;-60
2021/05/01 01:22:17;;;;;;;12.47;8.27;;;10.20;99.90;;;;;;4222775;27;20087;-60
2021/05/01 01:24:20;;;;;;;14.23;9.60;;;10.10;99.90;;;;;;4226722;27;20115;-59
2021/05/01 01:26:22;;;;;;;17.83;9.17;;;10.10;99.90;;;;;;4232598;27;20367;-61
2021/05/01 01:28:23;;;;;;;17.67;10.03;;;10.00;99.90;;;;;;4239710;27;20043;-62
2021/05/01 01:30:27;;;;;;;30.40;20.17;;;10.00;99.90;;;;;;4239103;27;20019;-61
2021/05/01 01:32:28;;;;;;;63.27;40.27;;;9.90;99.90;;;;;;4239367;27;20084;-61
2021/05/01 01:34:29;;;;;;;29.80;21.53;;;9.90;99.90;;;;;;4240232;27;20083;-61
2021/05/01 01:36:31;;;;;;;38.70;22.50;;;9.90;99.90;;;;;;4239225;27;20083;-61
2021/05/01 01:38:33;;;;;;;31.43;19.43;;;9.90;99.90;;;;;;4238835;27;20780;-61
2021/05/01 01:40:38;;;;;;;26.17;18.93;;;9.90;99.90;;;;;;4238584;27;20043;-61
2021/05/01 01:42:41;;;;;;;28.67;18.43;;;9.80;99.90;;;;;;4239977;27;20093;-61
2021/05/01 01:44:42;;;;;;;26.47;17.27;;;9.90;99.90;;;;;;4231980;27;20081;-58
2021/05/01 01:46:43;;;;;;;26.60;17.80;;;9.90;99.90;;;;;;4224633;28;20572;-62
2021/05/01 01:48:46;;;;;;;23.13;14.37;;;9.90;99.90;;;;;;4221596;28;20028;-67
2021/05/01 01:50:47;;;;;;;26.93;16.33;;;10.00;99.90;;;;;;4238545;28;20039;-61
2021/05/01 01:52:50;;;;;;;25.97;15.73;;;10.00;99.90;;;;;;4238478;27;20039;-59
2021/05/01 01:54:51;;;;;;;22.10;14.07;;;10.00;99.90;;;;;;4239776;28;20463;-61
2021/05/01 01:56:52;;;;;;;18.50;13.23;;;10.00;99.90;;;;;;4238972;28;20490;-61
2021/05/01 01:58:54;;;;;;;18.50;13.53;;;10.00;99.90;;;;;;4239840;28;20035;-61
2021/05/01 02:00:56;;;;;;;27.53;15.80;;;10.00;99.90;;;;;;4238801;28;20027;-61
2021/05/01 02:02:57;;;;;;;26.73;16.10;;;10.00;99.90;;;;;;4239582;27;20088;-59
2021/05/01 02:04:58;;;;;;;27.43;16.63;;;10.00;99.90;;;;;;4239202;27;20080;-61
2021/05/01 02:06:59;;;;;;;22.03;15.77;;;9.90;99.90;;;;;;4237454;28;20623;-61
2021/05/01 02:09:01;;;;;;;23.47;15.90;;;9.90;99.90;;;;;;4226555;28;20426;-62
2021/05/01 02:11:02;;;;;;;26.17;14.87;;;9.90;99.90;;;;;;4221794;28;20489;-61
2021/05/01 02:13:04;;;;;;;26.53;15.40;;;9.90;99.90;;;;;;4222636;28;20040;-62
2021/05/01 02:15:17;;;;;;;25.50;14.33;;;10.00;99.90;;;;;;4221959;28;20031;-62
2021/05/01 02:17:19;;;;;;;21.53;14.60;;;10.00;99.90;;;;;;4222971;28;20036;-62
2021/05/01 02:19:20;;;;;;;23.80;14.00;;;10.10;99.90;;;;;;4221583;28;20556;-61
2021/05/01 02:21:21;;;;;;;26.53;15.40;;;10.10;99.90;;;;;;4222581;28;20073;-61
2021/05/01 02:23:22;;;;;;;26.43;15.63;;;10.10;99.90;;;;;;4233371;28;20035;-60
2021/05/01 02:25:24;;;;;;;24.67;16.23;;;10.10;99.90;;;;;;4239374;27;20106;-61
2021/05/01 02:27:26;;;;;;;23.63;16.03;;;10.20;99.90;;;;;;4238644;28;20923;-61
2021/05/01 02:29:27;;;;;;;25.27;13.50;;;10.20;99.90;;;;;;4240095;27;20055;-61
2021/05/01 02:31:28;;;;;;;16.67;11.10;;;10.20;99.90;;;;;;4238786;27;20824;-60
2021/05/01 02:33:29;;;;;;;20.97;11.63;;;10.30;99.90;;;;;;4239600;28;20023;-61
2021/05/01 02:35:33;;;;;;;19.70;12.10;;;10.30;99.90;;;;;;4239081;28;20409;-60
2021/05/01 02:37:35;;;;;;;19.20;12.13;;;10.30;99.90;;;;;;4239069;28;20076;-61
2021/05/01 02:39:36;;;;;;;17.67;10.83;;;10.30;99.90;;;;;;4238882;28;20084;-61
2021/05/01 02:41:37;;;;;;;12.40;8.63;;;10.40;99.90;;;;;;4238735;28;20027;-61
2021/05/01 02:43:38;;;;;;;16.80;9.60;;;10.40;99.90;;;;;;4239173;28;20433;-61
2021/05/01 02:45:40;;;;;;;19.47;8.70;;;10.40;99.90;;;;;;4238520;28;20027;-61
2021/05/01 02:47:41;;;;;;;12.40;8.83;;;10.40;99.90;;;;;;4239631;28;20023;-60
2021/05/01 02:49:42;;;;;;;18.33;9.30;;;10.40;99.90;;;;;;4239012;27;20027;-61
2021/05/01 02:51:44;;;;;;;15.67;9.23;;;10.40;99.90;;;;;;4242953;27;20023;-60
2021/05/01 02:53:45;;;;;;;13.30;7.80;;;10.40;99.90;;;;;;4241405;27;20523;-60
2021/05/01 02:55:48;;;;;;;12.67;7.80;;;10.40;99.90;;;;;;4242493;27;20035;-59
2021/05/01 02:57:51;;;;;;;14.43;7.80;;;10.40;99.90;;;;;;4234885;27;20464;-60
2021/05/01 02:59:52;;;;;;;18.43;8.60;;;10.50;99.90;;;;;;4225276;27;20092;-61
2021/05/01 03:01:53;;;;;;;12.10;7.63;;;10.50;99.90;;;;;;4224399;27;20105;-60
2021/05/01 03:03:54;;;;;;;13.80;7.67;;;10.60;99.90;;;;;;4225663;28;20418;-61
2021/05/01 03:05:55;;;;;;;14.20;8.83;;;10.60;99.90;;;;;;4224178;28;20483;-61
2021/05/01 03:07:56;;;;;;;12.33;7.13;;;10.60;99.90;;;;;;4225893;27;20144;-61
2021/05/01 03:09:57;;;;;;;11.00;7.30;;;10.70;99.90;;;;;;4224556;28;20961;-60
2021/05/01 03:11:58;;;;;;;15.63;8.30;;;10.80;99.90;;;;;;4224270;28;20031;-61
2021/05/01 03:13:59;;;;;;;12.03;6.53;;;10.80;99.90;;;;;;4224540;28;20096;-61
2021/05/01 03:16:01;;;;;;;9.53;5.57;;;10.70;99.90;;;;;;4223932;28;20084;-60
2021/05/01 03:18:02;;;;;;;9.47;6.70;;;10.70;99.90;;;;;;4224905;28;20024;-60
2021/05/01 03:20:04;;;;;;;10.77;6.77;;;10.70;99.90;;;;;;4223763;28;20089;-60
2021/05/01 03:22:07;;;;;;;11.70;6.57;;;10.70;99.90;;;;;;4224732;28;20433;-61
2021/05/01 03:24:09;;;;;;;14.83;7.00;;;10.70;99.90;;;;;;4223835;28;20039;-61
2021/05/01 03:26:10;;;;;;;11.53;6.27;;;10.70;99.90;;;;;;4224688;28;20069;-60
2021/05/01 03:28:11;;;;;;;12.90;7.50;;;10.70;99.90;;;;;;4222042;28;20112;-61
2021/05/01 03:30:15;;;;;;;17.00;7.33;;;10.70;99.90;;;;;;4225324;28;20040;-62
2021/05/01 03:32:16;;;;;;;12.13;8.47;;;10.80;99.90;;;;;;4223165;28;20039;-60
2021/05/01 03:34:17;;;;;;;15.13;10.80;;;10.80;99.90;;;;;;4225282;28;20476;-61
2021/05/01 03:36:18;;;;;;;15.40;9.50;;;10.70;99.90;;;;;;4223851;28;20076;-60
2021/05/01 03:38:19;;;;;;;12.80;10.13;;;10.60;99.90;;;;;;4224685;28;20031;-60
2021/05/01 03:40:22;;;;;;;15.90;10.43;;;10.60;99.90;;;;;;4223676;28;20096;-61
2021/05/01 03:42:23;;;;;;;17.13;10.77;;;10.50;99.90;;;;;;4225329;27;20023;-58
2021/05/01 03:44:24;;;;;;;19.73;13.07;;;10.40;99.90;;;;;;4223966;27;20043;-61
2021/05/01 03:46:25;;;;;;;24.60;11.70;;;10.30;99.90;;;;;;4224368;28;20077;-61
2021/05/01 03:48:27;;;;;;;20.13;12.37;;;10.20;99.90;;;;;;4224340;28;20093;-61
2021/05/01 03:50:28;;;;;;;24.03;13.77;;;10.20;99.90;;;;;;4223232;28;20554;-60
2021/05/01 03:52:29;;;;;;;33.53;14.73;;;10.20;99.90;;;;;;4224350;28;20105;-62
2021/05/01 03:54:32;;;;;;;26.83;14.47;;;10.20;99.90;;;;;;4223044;28;20047;-61
2021/05/01 03:56:34;;;;;;;27.30;15.73;;;10.20;99.90;;;;;;4223933;28;20204;-61
2021/05/01 03:58:35;;;;;;;24.90;14.37;;;10.10;99.90;;;;;;4223364;28;20499;-60
2021/05/01 04:00:36;;;;;;;16.90;12.47;;;10.10;99.90;;;;;;4225573;27;20065;-61
2021/05/01 04:02:39;;;;;;;17.73;11.87;;;10.10;99.90;;;;;;4223362;28;20039;-61
2021/05/01 04:04:40;;;;;;;17.97;11.53;;;10.10;99.90;;;;;;4223365;28;20036;-62
2021/05/01 04:06:41;;;;;;;22.33;15.57;;;10.10;99.90;;;;;;4223313;28;20500;-61
2021/05/01 04:08:43;;;;;;;24.47;15.63;;;10.10;99.90;;;;;;4224105;28;20056;-62
2021/05/01 04:10:44;;;;;;;24.33;16.37;;;10.10;99.90;;;;;;4223088;28;20032;-62
2021/05/01 04:12:45;;;;;;;29.87;18.40;;;10.10;99.90;;;;;;4224105;28;20413;-61
2021/05/01 04:14:46;;;;;;;22.63;15.33;;;10.10;99.90;;;;;;4222788;28;20560;-61
2021/05/01 04:16:47;;;;;;;22.87;15.73;;;10.10;99.90;;;;;;4224263;27;20090;-62
2021/05/01 04:18:49;;;;;;;21.17;15.40;;;10.10;99.90;;;;;;4240650;27;20043;-62
2021/05/01 04:20:50;;;;;;;25.73;14.73;;;10.10;99.90;;;;;;4240081;27;20072;-62
2021/05/01 04:22:51;;;;;;;22.10;14.63;;;10.10;99.90;;;;;;4240747;27;20092;-62
2021/05/01 04:24:52;;;;;;;20.47;14.73;;;10.10;99.90;;;;;;4239735;27;20103;-62
2021/05/01 04:26:54;;;;;;;20.53;14.40;;;10.10;99.90;;;;;;4240645;27;20437;-61
2021/05/01 04:28:56;;;;;;;22.00;15.00;;;10.10;99.90;;;;;;4239620;27;20028;-65
2021/05/01 04:30:58;;;;;;;19.83;14.13;;;10.10;99.90;;;;;;4240584;27;20038;-61
2021/05/01 04:33:00;;;;;;;20.27;13.50;;;10.10;99.90;;;;;;4239458;27;20139;-61
2021/05/01 04:35:04;;;;;;;24.77;14.50;;;10.10;99.90;;;;;;4240655;27;20043;-61
2021/05/01 04:37:05;;;;;;;25.90;14.17;;;10.10;99.90;;;;;;4239311;27;20061;-63
2021/05/01 04:39:07;;;;;;;27.37;16.33;;;10.20;99.90;;;;;;4240025;27;20063;-62
2021/05/01 04:41:08;;;;;;;21.33;14.10;;;10.20;99.90;;;;;;4239600;27;20027;-61
2021/05/01 04:43:11;;;;;;;23.87;13.63;;;10.40;99.90;;;;;;4240321;27;20052;-61
2021/05/01 04:45:14;;;;;;;21.90;13.50;;;10.40;99.90;;;;;;4239405;27;20031;-62
2021/05/01 04:47:15;;;;;;;24.60;14.50;;;10.50;99.90;;;;;;4239916;27;20100;-63
2021/05/01 04:49:17;;;;;;;26.13;14.77;;;10.60;99.90;;;;;;4239760;27;20084;-62
2021/05/01 04:51:19;;;;;;;21.10;15.53;;;10.80;99.90;;;;;;4239675;27;20771;-63
2021/05/01 04:53:21;;;;;;;24.87;15.83;;;10.90;99.90;;;;;;4237939;27;20047;-61
2021/05/01 04:55:25;;;;;;;21.70;15.37;;;11.00;99.90;;;;;;4239091;27;20035;-66
2021/05/01 04:57:27;;;;;;;24.00;14.77;;;11.10;99.90;;;;;;4239855;27;20031;-62
2021/05/01 04:59:28;;;;;;;19.10;14.23;;;11.50;99.90;;;;;;4238770;27;20051;-63
2021/05/01 05:01:30;;;;;;;19.90;13.30;;;12.20;99.90;;;;;;4239941;27;20043;-65
2021/05/01 05:03:31;;;;;;;21.47;14.13;;;12.90;99.90;;;;;;4239298;27;20072;-61
2021/05/01 05:05:32;;;;;;;18.63;13.07;;;13.00;99.90;;;;;;4241015;27;20034;-62
2021/05/01 05:07:33;;;;;;;21.63;13.93;;;13.20;99.90;;;;;;4238968;27;20043;-60
2021/05/01 05:09:35;;;;;;;16.30;11.73;;;13.20;99.90;;;;;;4240011;27;20095;-71
2021/05/01 05:11:36;;;;;;;20.33;13.40;;;13.00;99.90;;;;;;4238683;27;20080;-64
2021/05/01 05:13:37;;;;;;;18.00;13.40;;;12.80;99.90;;;;;;4238857;27;20039;-65
2021/05/01 05:15:38;;;;;;;20.37;14.57;;;12.60;99.90;;;;;;4239381;27;20035;-62
2021/05/01 05:17:39;;;;;;;23.87;16.07;;;12.40;99.90;;;;;;4237695;27;20044;-62
2021/05/01 05:19:41;;;;;;;23.53;15.47;;;12.20;99.90;;;;;;4238968;27;20056;-63
2021/05/01 05:21:42;;;;;;;24.20;15.60;;;12.10;99.90;;;;;;4239190;27;20039;-61
2021/05/01 05:23:43;;;;;;;19.70;14.50;;;12.00;99.90;;;;;;4240145;27;20676;-62
2021/05/01 05:25:44;;;;;;;25.30;16.17;;;12.00;99.90;;;;;;4239554;27;20752;-63
2021/05/01 05:27:46;;;;;;;24.37;16.27;;;12.00;99.90;;;;;;4239696;27;20023;-64
2021/05/01 05:29:51;;;;;;;32.03;16.80;;;12.00;99.90;;;;;;4238953;27;20096;-62
2021/05/01 05:31:52;;;;;;;28.80;15.93;;;12.30;99.90;;;;;;4239859;27;20072;-60
2021/05/01 05:33:53;;;;;;;25.73;16.07;;;12.70;99.90;;;;;;4238853;27;20043;-62
2021/05/01 05:35:54;;;;;;;23.37;16.00;;;13.00;99.90;;;;;;4240657;27;20088;-63
2021/05/01 05:37:55;;;;;;;18.00;14.00;;;13.10;99.90;;;;;;4238345;27;20091;-61
2021/05/01 05:39:57;;;;;;;20.73;13.90;;;13.30;99.90;;;;;;4237545;27;20050;-62
2021/05/01 05:41:58;;;;;;;22.37;13.53;;;13.30;99.90;;;;;;4238740;27;20035;-62
2021/05/01 05:44:00;;;;;;;18.67;12.03;;;13.70;99.90;;;;;;4237898;27;20535;-66
2021/05/01 05:46:11;;;;;;;15.57;10.83;;;13.90;99.90;;;;;;4229416;28;20438;-62
2021/05/01 05:48:13;;;;;;;16.67;10.67;;;14.00;99.90;;;;;;4222602;28;20020;-62
2021/05/01 05:50:15;;;;;;;14.23;11.13;;;14.20;99.90;;;;;;4220880;28;20039;-69
2021/05/01 05:52:16;;;;;;;14.97;10.53;;;14.20;99.90;;;;;;4222480;28;20108;-63
2021/05/01 05:54:17;;;;;;;12.77;9.50;;;14.30;99.90;;;;;;4222003;28;20089;-61
2021/05/01 05:56:19;;;;;;;14.70;9.90;;;14.30;99.90;;;;;;4226771;28;20019;-62
2021/05/01 05:58:21;;;;;;;23.40;14.43;;;14.40;99.90;;;;;;4231297;28;20053;-61
2021/05/01 06:00:24;;;;;;;21.33;14.93;;;14.50;99.90;;;;;;4237401;28;20043;-61
2021/05/01 06:02:27;;;;;;;15.23;10.47;;;14.40;99.90;;;;;;4239081;28;20076;-61
2021/05/01 06:04:48;;;;;;;15.17;10.10;;;14.20;99.90;;;;;;4238568;28;20027;-63
2021/05/01 06:07:07;;;;;;;17.20;10.50;;;14.00;99.90;;;;;;4239750;28;20088;-65
2021/05/01 06:09:09;;;;;;;14.63;10.53;;;14.00;99.90;;;;;;4238120;27;20027;-63
2021/05/01 06:11:11;;;;;;;15.57;10.77;;;14.00;99.90;;;;;;4231371;27;20108;-61
2021/05/01 06:13:13;;;;;;;15.67;11.27;;;13.90;99.90;;;;;;4234307;28;20044;-60
2021/05/01 06:15:16;;;;;;;19.47;12.93;;;13.90;99.90;;;;;;4238766;27;20900;-62
2021/05/01 06:17:21;;;;;;;19.60;12.27;;;13.90;99.90;;;;;;4225495;27;20093;-63
2021/05/01 06:19:23;;;;;;;22.50;11.00;;;14.20;99.90;;;;;;4221780;28;20055;-63
2021/05/01 06:21:24;;;;;;;21.40;11.40;;;14.60;99.90;;;;;;4220828;28;20044;-60
2021/05/01 06:23:25;;;;;;;17.10;10.67;;;15.00;99.90;;;;;;4232989;27;20039;-62
2021/05/01 06:25:27;;;;;;;18.37;10.07;;;15.50;99.90;;;;;;4238933;27;20073;-62
2021/05/01 06:27:29;;;;;;;17.80;9.80;;;15.80;99.90;;;;;;4243349;27;20084;-62
2021/05/01 06:29:31;;;;;;;13.13;8.10;;;15.90;99.90;;;;;;4241352;27;20034;-61
2021/05/01 06:31:38;;;;;;;11.70;7.57;;;15.90;99.90;;;;;;4230958;27;20017;-60
2021/05/01 06:33:40;;;;;;;15.63;8.60;;;15.90;99.90;;;;;;4239944;27;20047;-63
2021/05/01 06:35:44;;;;;;;15.60;8.27;;;15.80;99.90;;;;;;4239095;27;20039;-60
2021/05/01 06:37:47;;;;;;;13.93;7.83;;;15.70;99.90;;;;;;4226030;27;20089;-62
2021/05/01 06:39:51;;;;;;;18.63;8.07;;;15.70;99.90;;;;;;4225191;28;20093;-62
2021/05/01 06:41:57;;;;;;;13.07;8.18;;;15.60;99.90;;;;;;4224712;28;20028;-63
2021/05/01 06:44:05;;;;;;;12.98;8.07;;;15.60;99.90;;;;;;4231180;27;20376;-62
2021/05/01 06:46:06;;;;;;;12.88;8.20;;;15.50;99.90;;;;;;4237938;27;20100;-62
2021/05/01 06:48:14;;;;;;;11.73;8.07;;;15.40;99.90;;;;;;4238404;27;20023;-62
2021/05/01 06:50:16;;;;;;;12.93;7.80;;;15.40;99.90;;;;;;4239771;27;20109;-62
2021/05/01 06:52:17;;;;;;;14.13;8.88;;;15.50;99.90;;;;;;4241110;27;20491;-62
2021/05/01 06:54:21;;;;;;;16.50;7.80;;;15.50;99.90;;;;;;4227117;27;20058;-61
2021/05/01 06:56:23;;;;;;;11.55;7.60;;;15.50;99.90;;;;;;4237182;27;21519;-61
2021/05/01 06:58:24;;;;;;;12.38;8.15;;;15.50;99.90;;;;;;4241776;27;20077;-62
2021/05/01 07:00:27;;;;;;;11.98;7.13;;;15.50;99.90;;;;;;4240498;27;20111;-62
2021/05/01 07:02:32;;;;;;;12.35;6.65;;;15.60;99.90;;;;;;4242684;27;20039;-60
2021/05/01 07:04:34;;;;;;;11.32;7.20;;;15.70;99.90;;;;;;4241345;27;20040;-62
2021/05/01 07:06:36;;;;;;;10.85;6.53;;;15.90;99.90;;;;;;4242077;27;20080;-61
2021/05/01 07:08:41;;;;;;;10.45;7.00;;;16.00;99.90;;;;;;4240406;27;20035;-62
2021/05/01 07:10:43;;;;;;;11.13;6.55;;;16.10;99.90;;;;;;4241818;27;20409;-62
2021/05/01 07:12:45;;;;;;;11.57;6.32;;;16.10;99.90;;;;;;4240567;27;20035;-63
2021/05/01 07:14:47;;;;;;;8.68;5.55;;;16.20;99.90;;;;;;4232206;27;20112;-62
2021/05/01 07:16:48;;;;;;;12.32;6.28;;;16.20;99.90;;;;;;4236948;27;20104;-62
2021/05/01 07:18:50;;;;;;;8.48;5.90;;;16.20;99.90;;;;;;4241281;27;20356;-63
2021/05/01 07:20:52;;;;;;;12.80;6.47;;;16.20;99.90;;;;;;4232501;27;20469;-63
2021/05/01 07:22:53;;;;;;;8.88;6.05;;;16.10;99.90;;;;;;4224254;28;20758;-63
2021/05/01 07:24:54;;;;;;;14.25;6.28;;;16.00;99.90;;;;;;4223830;28;20020;-61
2021/05/01 07:26:57;;;;;;;10.50;5.15;;;15.90;99.90;;;;;;4223908;28;20056;-62
2021/05/01 07:29:01;;;;;;;7.50;5.57;;;15.80;99.90;;;;;;4225620;27;20039;-61
2021/05/01 07:31:08;;;;;;;7.78;5.40;;;15.80;99.90;;;;;;4223760;28;20054;-62
2021/05/01 07:33:20;;;;;;;11.38;6.47;;;15.70;99.90;;;;;;4224731;28;20023;-62
2021/05/01 07:35:24;;;;;;;13.10;6.35;;;15.80;99.90;;;;;;4223810;28;20100;-62
2021/05/01 07:37:28;;;;;;;7.65;5.85;;;15.80;99.90;;;;;;4224563;28;20016;-67
2021/05/01 07:39:31;;;;;;;14.90;8.18;;;15.80;99.90;;;;;;4223182;28;20152;-67
2021/05/01 07:41:33;;;;;;;20.52;10.07;;;15.80;99.90;;;;;;4223998;28;20080;-63
2021/05/01 07:43:36;;;;;;;18.33;10.30;;;15.80;99.90;;;;;;4223179;27;20023;-64
2021/05/01 07:45:37;;;;;;;12.98;8.90;;;15.90;99.90;;;;;;4225145;28;20364;-64
2021/05/01 07:47:39;;;;;;;23.75;10.52;;;15.80;99.90;;;;;;4223325;28;20116;-67
2021/05/01 07:49:41;;;;;;;20.73;9.60;;;15.80;99.90;;;;;;4224551;28;20027;-63
2021/05/01 07:51:43;;;;;;;16.13;10.25;;;15.80;99.90;;;;;;4222959;28;20077;-63
2021/05/01 07:53:44;;;;;;;16.48;10.82;;;15.80;99.90;;;;;;4224204;28;20108;-64
2021/05/01 07:55:46;;;;;;;15.35;8.00;;;15.70;99.90;;;;;;4223000;28;20031;-63
2021/05/01 07:57:47;;;;;;;16.23;7.22;;;15.70;99.90;;;;;;4223521;28;20428;-64
2021/05/01 07:59:49;;;;;;;27.80;15.65;;;15.70;99.90;;;;;;4223640;27;20052;-65
2021/05/01 08:01:50;;;;;;;18.30;12.25;;;15.80;99.90;;;;;;4239619;27;20043;-64
2021/05/01 08:03:51;;;;;;;11.43;7.13;;;15.80;99.90;;;;;;4240704;27;20080;-62
2021/05/01 08:05:52;;;;;;;10.15;6.22;;;15.70;99.90;;;;;;4241144;27;20035;-65
2021/05/01 08:07:53;;;;;;;9.95;5.75;;;15.70;99.90;;;;;;4241350;27;20889;-64
2021/05/01 08:09:54;;;;;;;10.63;5.88;;;15.70;99.90;;;;;;4239973;27;20031;-65
2021/05/01 08:11:55;;;;;;;11.70;6.18;;;15.70;99.90;;;;;;4240681;27;20039;-63
2021/05/01 08:13:57;;;;;;;8.90;5.40;;;15.70;99.90;;;;;;4239872;27;20027;-62
2021/05/01 08:15:58;;;;;;;12.40;5.57;;;15.80;99.90;;;;;;4236035;27;20035;-65
2021/05/01 08:18:00;;;;;;;8.85;5.15;;;15.90;99.90;;;;;;4222870;28;20084;-64
2021/05/01 08:20:02;;;;;;;12.38;5.78;;;15.90;99.90;;;;;;4224200;28;20077;-64
2021/05/01 08:22:03;;;;;;;8.07;4.30;;;16.00;99.90;;;;;;4220590;28;20089;-64
2021/05/01 08:24:05;;;;;;;6.10;3.05;;;16.10;99.90;;;;;;4223857;28;20039;-66
2021/05/01 08:26:08;;;;;;;4.95;2.95;;;16.20;99.90;;;;;;4222268;28;20061;-65
2021/05/01 08:28:09;;;;;;;3.53;1.70;;;16.40;99.90;;;;;;4223935;28;20148;-66
2021/05/01 08:30:15;;;;;;;3.17;1.45;;;16.60;99.90;;;;;;4223014;28;20107;-63
2021/05/01 08:32:17;;;;;;;2.88;1.42;;;17.00;99.90;;;;;;4223930;28;20028;-62
2021/05/01 08:34:18;;;;;;;5.72;1.40;;;17.50;99.90;;;;;;4223091;28;20524;-63
2021/05/01 08:36:19;;;;;;;3.65;1.60;;;17.80;99.90;;;;;;4238060;27;20031;-66
2021/05/01 08:38:21;;;;;;;1.95;1.35;;;18.10;99.90;;;;;;4240474;27;20784;-68
2021/05/01 08:40:22;;;;;;;3.85;1.30;;;18.30;99.90;;;;;;4238540;27;20047;-63
2021/05/01 08:42:24;;;;;;;5.32;1.77;;;18.30;99.90;;;;;;4239515;27;20027;-65
2021/05/01 08:44:26;;;;;;;3.80;1.60;;;18.40;99.90;;;;;;4239602;27;20170;-70
2021/05/01 08:46:27;;;;;;;4.18;2.22;;;18.50;99.90;;;;;;4240589;27;20024;-63
2021/05/01 08:48:29;;;;;;;5.03;2.92;;;18.50;99.90;;;;;;4239059;27;20421;-64
2021/05/01 08:50:36;;;;;;;4.47;2.13;;;18.50;99.90;;;;;;4240487;27;20425;-64
2021/05/01 08:52:37;;;;;;;2.92;1.60;;;18.60;99.90;;;;;;4237545;27;20043;-63
2021/05/01 08:54:38;;;;;;;4.95;2.47;;;18.80;99.90;;;;;;4241106;27;20080;-62
2021/05/01 08:56:41;;;;;;;2.92;2.00;;;19.00;99.90;;;;;;4236970;27;20112;-65
2021/05/01 08:58:42;;;;;;;6.00;2.60;;;18.90;99.90;;;;;;4240311;27;20035;-64
2021/05/01 09:00:47;;;;;;;4.45;2.47;;;18.80;99.90;;;;;;4239547;27;20506;-62
2021/05/01 09:02:49;;;;;;;4.47;2.85;;;18.90;99.90;;;;;;4240457;27;20494;-68
2021/05/01 09:04:53;;;;;;;6.68;2.42;;;18.90;99.90;;;;;;4239556;27;20495;-61
2021/05/01 09:06:54;;;;;;;5.20;3.17;;;19.10;99.90;;;;;;4240939;27;20039;-61
2021/05/01 09:08:58;;;;;;;4.68;1.85;;;19.30;99.90;;;;;;4240026;27;20027;-61
2021/05/01 09:11:03;;;;;;;3.90;1.65;;;19.40;99.90;;;;;;4237409;27;20031;-63
2021/05/01 09:13:15;;;;;;;3.47;1.58;;;19.60;99.90;;;;;;4238575;27;20075;-55
2021/05/01 09:15:19;;;;;;;3.28;1.38;;;19.60;99.90;;;;;;4237873;27;20151;-60
2021/05/01 09:17:20;;;;;;;6.57;2.30;;;19.80;99.90;;;;;;4239402;27;20543;-61
2021/05/01 09:19:40;;;;;;;3.65;2.38;;;19.80;99.90;;;;;;4238892;27;20506;-62
2021/05/01 09:21:41;;;;;;;5.47;2.33;;;19.80;99.90;;;;;;4239313;27;20027;-62
2021/05/01 09:23:42;;;;;;;7.60;3.17;;;19.90;99.90;;;;;;4239206;27;20046;-62
2021/05/01 09:25:57;;;;;;;6.90;3.20;;;20.00;99.90;;;;;;4239302;27;20042;-63
2021/05/01 09:28:16;;;;;;;5.25;3.30;;;19.90;99.90;;;;;;4238980;27;20368;-61
2021/05/01 09:30:18;;;;;;;7.50;3.88;;;19.80;99.90;;;;;;4238882;27;20081;-62
2021/05/01 09:32:28;;;;;;;4.95;3.35;;;19.80;99.90;;;;;;4236864;27;20076;-62
2021/05/01 09:34:35;;;;;;;3.80;2.95;;;19.70;99.90;;;;;;4239309;27;20421;-63
2021/05/01 09:36:36;;;;;;;7.47;3.30;;;19.70;99.90;;;;;;4238433;27;20084;-61
2021/05/01 09:38:41;;;;;;;4.65;3.17;;;19.70;99.90;;;;;;4239497;27;20068;-62
2021/05/01 09:40:47;;;;;;;7.85;2.88;;;19.70;99.90;;;;;;4237580;27;20055;-63
2021/05/01 09:42:48;;;;;;;6.05;2.25;;;19.80;99.90;;;;;;4239276;27;20360;-62
2021/05/01 09:45:08;;;;;;;4.35;1.80;;;19.90;99.90;;;;;;4238084;27;20092;-65
2021/05/01 09:47:16;;;;;;;6.18;2.00;;;20.00;99.90;;;;;;4239646;28;20061;-62
2021/05/01 09:49:29;;;;;;;3.97;1.60;;;20.20;99.90;;;;;;4238330;27;20088;-62
2021/05/01 09:51:46;;;;;;;5.93;1.60;;;20.30;99.90;;;;;;4239896;28;20484;-64
2021/05/01 09:53:47;;;;;;;3.22;1.80;;;20.20;99.90;;;;;;4232829;28;20043;-63
2021/05/01 09:55:58;;;;;;;10.55;5.13;;;20.10;99.90;;;;;;4224678;28;20103;-62
2021/05/01 09:58:00;;;;;;;7.97;2.33;;;19.90;99.90;;;;;;4232617;28;20108;-63
2021/05/01 10:00:01;;;;;;;5.28;2.15;;;19.80;99.90;;;;;;4240705;27;20038;-62
2021/05/01 10:02:02;;;;;;;4.38;1.95;;;19.80;99.90;;;;;;4232220;27;20115;-63
2021/05/01 10:04:15;;;;;;;3.13;1.98;;;19.80;99.90;;;;;;4233712;27;20027;-62
2021/05/01 10:06:19;;;;;;;2.80;1.88;;;19.70;99.90;;;;;;4235924;27;20502;-70
2021/05/01 10:08:25;;;;;;;3.45;2.00;;;19.70;99.90;;;;;;4242411;27;20092;-62
2021/05/01 10:10:39;;;;;;;4.15;1.88;;;19.70;99.90;;;;;;4240982;27;20372;-61
2021/05/01 10:12:42;;;;;;;4.78;1.98;;;19.70;99.90;;;;;;4243134;27;20051;-64
2021/05/01 10:14:43;;;;;;;4.95;2.67;;;19.90;99.90;;;;;;4241756;27;20043;-66
2021/05/01 10:16:54;;;;;;;8.70;3.35;;;19.90;99.90;;;;;;4242533;27;20035;-69
2021/05/01 10:19:08;;;;;;;3.50;2.17;;;20.10;99.90;;;;;;4241068;27;20076;-64
2021/05/01 10:21:25;;;;;;;4.70;2.10;;;20.20;99.90;;;;;;4242507;27;20088;-63
2021/05/01 10:23:26;;;;;;;6.40;1.95;;;20.20;99.90;;;;;;4240926;27;20511;-64
2021/05/01 10:25:29;;;;;;;5.65;2.53;;;20.30;99.90;;;;;;4242568;27;20056;-63
2021/05/01 10:27:41;;;;;;;3.85;1.90;;;20.40;99.90;;;;;;4240557;27;20127;-63
2021/05/01 10:29:43;;;;;;;7.38;2.50;;;20.40;99.90;;;;;;4242905;27;20088;-63